createdAt,value
2023-04-18T00:01:09.974Z,11.10
2023-04-18T00:03:39.127Z,11.10
2023-04-18T00:06:07.030Z,11.00
2023-04-18T00:08:34.540Z,11.00
2023-04-18T00:11:02.016Z,11.00
2023-04-18T00:13:29.250Z,10.90
2023-04-18T00:15:56.953Z,10.90
2023-04-18T00:18:26.820Z,10.90
2023-04-18T00:20:54.547Z,10.90
2023-04-18T00:23:22.482Z,10.90
2023-04-18T00:25:49.868Z,10.80
2023-04-18T00:28:17.114Z,10.90
2023-04-18T00:30:45.776Z,10.80
2023-04-18T00:33:13.056Z,10.80
2023-04-18T00:35:40.537Z,10.80
2023-04-18T00:38:08.657Z,10.80
2023-04-18T00:40:36.391Z,10.80
2023-04-18T00:43:03.721Z,10.80
2023-04-18T00:45:31.311Z,10.70
2023-04-18T00:47:58.726Z,10.70
2023-04-18T00:50:26.562Z,10.70
2023-04-18T00:52:54.904Z,10.60
2023-04-18T00:55:23.072Z,10.50
2023-04-18T00:57:51.252Z,10.50
2023-04-18T01:00:18.996Z,10.50
2023-04-18T01:02:47.171Z,10.40
2023-04-18T01:05:14.782Z,10.40
2023-04-18T01:07:43.144Z,10.40
2023-04-18T01:10:11.454Z,10.30
2023-04-18T01:12:39.499Z,10.30
2023-04-18T01:15:07.877Z,10.30
2023-04-18T01:17:36.678Z,10.30
2023-04-18T01:20:06.427Z,10.30
2023-04-18T01:22:34.216Z,10.20
2023-04-18T01:25:06.503Z,10.20
2023-04-18T01:27:33.871Z,10.20
2023-04-18T01:30:01.377Z,10.20
2023-04-18T01:32:30.449Z,10.20
2023-04-18T01:34:57.842Z,10.20
2023-04-18T01:37:25.454Z,10.10
2023-04-18T01:39:52.792Z,10.10
2023-04-18T01:42:20.170Z,10.10
2023-04-18T01:44:47.471Z,10.10
2023-04-18T01:47:14.822Z,10.10
2023-04-18T01:49:46.792Z,10.10
2023-04-18T01:52:14.914Z,10.10
2023-04-18T01:54:42.732Z,10.10
2023-04-18T01:57:10.153Z,10.00
2023-04-18T01:59:38.540Z,10.00
2023-04-18T02:02:06.232Z,10.00
2023-04-18T02:04:33.626Z,10.00
2023-04-18T02:07:01.105Z,9.90
2023-04-18T02:09:28.484Z,9.90
2023-04-18T02:11:59.350Z,9.90
2023-04-18T02:14:30.618Z,9.90
2023-04-18T02:17:00.954Z,9.90
2023-04-18T02:19:29.665Z,9.80
2023-04-18T02:21:57.227Z,9.80
2023-04-18T02:24:24.649Z,9.80
2023-04-18T02:26:51.969Z,9.80
2023-04-18T02:29:19.599Z,9.80
2023-04-18T02:31:46.957Z,9.80
2023-04-18T02:34:15.876Z,9.70
2023-04-18T02:36:43.434Z,9.70
2023-04-18T02:39:11.009Z,9.60
2023-04-18T02:41:39.503Z,9.60
2023-04-18T02:44:08.737Z,9.60
2023-04-18T02:46:38.774Z,9.60
2023-04-18T02:49:09.185Z,9.50
2023-04-18T02:51:36.781Z,9.50
2023-04-18T02:54:04.714Z,9.50
2023-04-18T02:56:44.868Z,9.50
2023-04-18T02:59:18.942Z,9.50
2023-04-18T03:01:48.310Z,9.40
2023-04-18T03:04:18.968Z,9.40
2023-04-18T03:06:56.362Z,9.40
2023-04-18T03:09:24.246Z,9.40
2023-04-18T03:11:56.912Z,9.40
2023-04-18T03:14:27.425Z,9.40
2023-04-18T03:16:56.305Z,9.40
2023-04-18T03:19:28.949Z,9.40
2023-04-18T03:21:59.860Z,9.40
2023-04-18T03:24:27.904Z,9.40
2023-04-18T03:27:00.788Z,9.40
2023-04-18T03:29:28.424Z,9.40
2023-04-18T03:31:56.331Z,9.40
2023-04-18T03:34:23.954Z,9.40
2023-04-18T03:36:52.625Z,9.40
2023-04-18T03:39:19.994Z,9.40
2023-04-18T03:41:47.739Z,9.30
2023-04-18T03:44:15.838Z,9.30
2023-04-18T03:46:43.451Z,9.30
2023-04-18T03:49:11.200Z,9.30
2023-04-18T03:51:41.522Z,9.30
2023-04-18T03:54:09.001Z,9.30
2023-04-18T03:56:36.842Z,9.20
2023-04-18T03:59:04.391Z,9.20
2023-04-18T04:01:31.880Z,9.10
2023-04-18T04:03:59.739Z,9.20
2023-04-18T04:06:27.666Z,9.20
2023-04-18T04:08:55.548Z,9.20
2023-04-18T04:11:26.324Z,9.20
2023-04-18T04:13:53.906Z,9.20
2023-04-18T04:16:27.413Z,9.20
2023-04-18T04:18:55.929Z,9.30
2023-04-18T04:21:30.850Z,9.30
2023-04-18T04:23:58.518Z,9.30
2023-04-18T04:26:27.837Z,9.40
2023-04-18T04:29:03.797Z,9.40
2023-04-18T04:31:33.918Z,9.30
2023-04-18T04:34:01.829Z,9.40
2023-04-18T04:36:29.522Z,9.30
2023-04-18T04:38:59.604Z,9.30
2023-04-18T04:41:33.894Z,9.30
2023-04-18T04:44:02.051Z,9.40
2023-04-18T04:46:32.661Z,9.40
2023-04-18T04:49:02.194Z,9.40
2023-04-18T04:51:29.569Z,9.40
2023-04-18T04:53:57.562Z,9.30
2023-04-18T04:56:25.043Z,9.30
2023-04-18T04:58:53.949Z,9.30
2023-04-18T05:01:25.075Z,9.40
2023-04-18T05:03:52.936Z,9.40
2023-04-18T05:06:22.547Z,9.40
2023-04-18T05:08:51.108Z,9.40
2023-04-18T05:11:18.822Z,9.40
2023-04-18T05:13:46.144Z,9.40
2023-04-18T05:16:13.480Z,9.40
2023-04-18T05:18:41.728Z,9.50
2023-04-18T05:21:09.178Z,9.50
2023-04-18T05:23:37.273Z,9.50
2023-04-18T05:26:06.063Z,9.50
2023-04-18T05:28:33.481Z,9.50
2023-04-18T05:31:01.649Z,9.50
2023-04-18T05:33:30.941Z,9.50
2023-04-18T05:35:58.952Z,9.50
2023-04-18T05:38:26.474Z,9.60
2023-04-18T05:40:56.037Z,9.70
2023-04-18T05:43:23.846Z,9.70
2023-04-18T05:45:52.797Z,9.70
2023-04-18T05:48:22.471Z,9.80
2023-04-18T05:50:49.745Z,9.80
2023-04-18T05:53:17.157Z,9.90
2023-04-18T05:55:46.817Z,9.90
2023-04-18T05:58:14.343Z,9.90
2023-04-18T06:00:42.856Z,10.00
2023-04-18T06:03:11.330Z,10.00
2023-04-18T06:05:41.075Z,10.00
2023-04-18T06:08:08.658Z,10.10
2023-04-18T06:10:38.423Z,10.10
2023-04-18T06:13:06.408Z,10.10
2023-04-18T06:15:34.706Z,10.10
2023-04-18T06:18:02.330Z,10.20
2023-04-18T06:20:29.788Z,10.20
2023-04-18T06:22:57.218Z,10.30
2023-04-18T06:25:25.208Z,10.30
2023-04-18T06:27:52.578Z,10.40
2023-04-18T06:30:22.152Z,10.40
2023-04-18T06:32:50.116Z,10.50
2023-04-18T06:35:17.563Z,10.60
2023-04-18T06:37:45.549Z,10.80
2023-04-18T06:40:13.226Z,10.80
2023-04-18T06:42:40.681Z,10.80
2023-04-18T06:45:08.363Z,11.00
2023-04-18T06:47:36.402Z,11.10
2023-04-18T06:50:04.516Z,11.20
2023-04-18T06:52:31.896Z,11.20
2023-04-18T06:54:59.433Z,11.30
2023-04-18T06:57:27.090Z,11.30
2023-04-18T06:59:54.448Z,11.30
2023-04-18T07:02:21.909Z,11.40
2023-04-18T07:04:50.396Z,11.50
2023-04-18T07:07:17.785Z,11.50
2023-04-18T07:09:45.163Z,11.50
2023-04-18T07:12:12.573Z,11.50
2023-04-18T07:14:39.929Z,11.50
2023-04-18T07:17:07.735Z,11.60
2023-04-18T07:19:35.420Z,11.60
2023-04-18T07:22:02.870Z,11.60
2023-04-18T07:24:30.753Z,11.70
2023-04-18T07:26:58.256Z,12.00
2023-04-18T07:29:25.602Z,12.10
2023-04-18T07:31:53.154Z,12.10
2023-04-18T07:34:22.172Z,12.10
2023-04-18T07:36:49.663Z,12.10
2023-04-18T07:39:17.119Z,12.20
2023-04-18T07:41:44.504Z,12.20
2023-04-18T07:44:11.895Z,12.30
2023-04-18T07:46:39.769Z,12.50
2023-04-18T07:49:07.216Z,12.60
2023-04-18T07:51:35.141Z,12.80
2023-04-18T07:54:02.556Z,12.80
2023-04-18T07:56:30.074Z,12.90
2023-04-18T07:58:57.347Z,13.00
2023-04-18T08:01:27.320Z,13.10
2023-04-18T08:03:56.677Z,13.20
2023-04-18T08:06:24.427Z,13.50
2023-04-18T08:08:52.784Z,14.10
2023-04-18T08:11:20.986Z,14.20
2023-04-18T08:13:48.458Z,14.60
2023-04-18T08:16:17.540Z,15.00
2023-04-18T08:18:45.128Z,15.20
2023-04-18T08:21:12.846Z,15.50
2023-04-18T08:23:40.227Z,15.70
2023-04-18T08:26:07.657Z,16.00
2023-04-18T08:28:34.957Z,16.20
2023-04-18T08:31:02.652Z,16.30
2023-04-18T08:33:30.164Z,16.30
2023-04-18T08:35:57.646Z,16.30
2023-04-18T08:38:25.065Z,16.50
2023-04-18T08:40:52.430Z,16.70
2023-04-18T08:43:19.704Z,16.90
2023-04-18T08:45:47.570Z,17.10
2023-04-18T08:48:16.809Z,17.20
2023-04-18T08:50:45.522Z,17.30
2023-04-18T08:53:13.058Z,17.30
2023-04-18T08:55:40.736Z,17.50
2023-04-18T08:58:08.118Z,17.50
2023-04-18T09:00:35.681Z,17.60
2023-04-18T09:03:04.159Z,17.70
2023-04-18T09:05:31.823Z,17.80
2023-04-18T09:07:59.285Z,17.90
2023-04-18T09:10:29.416Z,17.90
2023-04-18T09:12:58.222Z,18.00
2023-04-18T09:15:29.395Z,18.20
2023-04-18T09:17:59.052Z,18.30
2023-04-18T09:20:30.901Z,18.30
2023-04-18T09:23:00.987Z,18.40
2023-04-18T09:25:35.194Z,18.40
2023-04-18T09:28:04.777Z,18.40
2023-04-18T09:30:35.305Z,18.40
2023-04-18T09:33:04.726Z,18.40
2023-04-18T09:35:32.099Z,18.60
2023-04-18T09:37:59.640Z,18.80
2023-04-18T09:40:27.337Z,19.00
2023-04-18T09:42:54.868Z,19.00
2023-04-18T09:45:23.259Z,19.00
2023-04-18T09:47:52.627Z,18.90
2023-04-18T09:50:20.992Z,19.10
2023-04-18T09:52:49.138Z,19.10
2023-04-18T09:55:19.038Z,19.20
2023-04-18T09:57:48.230Z,19.20
2023-04-18T10:00:24.516Z,19.10
2023-04-18T10:02:58.422Z,19.20
2023-04-18T10:05:31.940Z,19.30
2023-04-18T10:07:59.536Z,19.40
2023-04-18T10:10:27.065Z,19.40
2023-04-18T10:12:58.342Z,19.50
2023-04-18T10:15:27.734Z,19.50
2023-04-18T10:18:04.331Z,19.50
2023-04-18T10:20:35.598Z,19.70
2023-04-18T10:23:25.538Z,19.80
2023-04-18T10:25:54.624Z,19.90
2023-04-18T10:28:22.132Z,19.90
2023-04-18T10:30:51.873Z,19.70
2023-04-18T10:33:30.472Z,19.80
2023-04-18T10:36:06.171Z,19.80
2023-04-18T10:38:35.067Z,19.90
2023-04-18T10:41:05.678Z,20.00
2023-04-18T10:43:54.525Z,20.10
2023-04-18T10:46:31.948Z,20.20
2023-04-18T10:49:03.693Z,20.20
2023-04-18T10:51:31.054Z,20.10
2023-04-18T10:54:01.134Z,20.20
2023-04-18T10:56:29.409Z,20.30
2023-04-18T10:59:01.823Z,20.40
2023-04-18T11:01:33.246Z,20.50
2023-04-18T11:04:01.401Z,20.50
2023-04-18T11:06:30.434Z,20.60
2023-04-18T11:09:01.306Z,20.60
2023-04-18T11:11:28.758Z,20.60
2023-04-18T11:13:57.796Z,20.70
2023-04-18T11:16:29.479Z,20.70
2023-04-18T11:18:57.099Z,20.70
2023-04-18T11:21:30.318Z,20.60
2023-04-18T11:23:58.633Z,20.60
2023-04-18T11:26:27.875Z,20.70
2023-04-18T11:28:57.317Z,20.80
2023-04-18T11:31:26.123Z,20.70
2023-04-18T11:33:56.650Z,20.80
2023-04-18T11:36:24.347Z,20.80
2023-04-18T11:38:51.912Z,20.70
2023-04-18T11:41:19.279Z,20.60
2023-04-18T11:43:47.328Z,20.60
2023-04-18T11:46:14.903Z,20.60
2023-04-18T11:48:45.391Z,20.60
2023-04-18T11:51:15.767Z,20.70
2023-04-18T11:53:43.195Z,20.60
2023-04-18T11:56:13.826Z,20.60
2023-04-18T11:58:42.428Z,20.60
2023-04-18T12:01:13.276Z,20.50
2023-04-18T12:03:40.838Z,20.50
2023-04-18T12:06:08.425Z,20.50
2023-04-18T12:08:35.890Z,20.50
2023-04-18T12:11:03.112Z,20.30
2023-04-18T12:13:33.222Z,20.20
2023-04-18T12:16:02.545Z,20.30
2023-04-18T12:18:31.615Z,20.40
2023-04-18T12:21:02.179Z,20.40
2023-04-18T12:23:31.531Z,20.50
2023-04-18T12:26:01.693Z,20.40
2023-04-18T12:28:29.381Z,20.40
2023-04-18T12:30:57.104Z,20.50
2023-04-18T12:33:24.486Z,20.30
2023-04-18T12:35:53.170Z,20.20
2023-04-18T12:38:22.452Z,20.20
2023-04-18T12:40:51.319Z,20.20
2023-04-18T12:43:19.500Z,20.20
2023-04-18T12:45:47.475Z,20.20
2023-04-18T12:48:14.988Z,20.20
2023-04-18T12:50:42.556Z,19.90
2023-04-18T12:53:09.975Z,19.80
2023-04-18T12:55:37.744Z,19.80
2023-04-18T12:58:05.247Z,20.00
2023-04-18T13:00:33.228Z,19.90
2023-04-18T13:03:01.236Z,19.60
2023-04-18T13:05:32.490Z,19.80
2023-04-18T13:10:31.692Z,20.00
2023-04-18T13:12:59.238Z,20.00
2023-04-18T13:15:27.734Z,20.10
2023-04-18T13:17:56.944Z,20.30
2023-04-18T13:20:24.776Z,20.30
2023-04-18T13:22:52.054Z,20.50
2023-04-18T13:25:19.486Z,20.50
2023-04-18T13:27:46.891Z,20.70
2023-04-18T13:30:14.392Z,20.90
2023-04-18T13:32:44.121Z,20.70
2023-04-18T13:35:11.772Z,20.30
2023-04-18T13:37:39.809Z,20.20
2023-04-18T13:40:08.184Z,20.30
2023-04-18T13:42:37.230Z,20.10
2023-04-18T13:45:05.001Z,19.90
2023-04-18T13:47:32.558Z,19.90
2023-04-18T13:49:59.984Z,19.90
2023-04-18T13:52:27.326Z,20.00
2023-04-18T13:54:55.209Z,20.00
2023-04-18T13:57:23.265Z,19.80
2023-04-18T13:59:50.858Z,19.60
2023-04-18T14:02:18.334Z,19.50
2023-04-18T14:04:46.704Z,19.30
2023-04-18T14:07:14.230Z,19.30
2023-04-18T14:09:42.962Z,19.30
2023-04-18T14:12:10.794Z,19.20
2023-04-18T14:14:38.221Z,19.00
2023-04-18T14:17:06.820Z,18.80
2023-04-18T14:19:35.216Z,18.70
2023-04-18T14:22:02.490Z,18.70
2023-04-18T14:24:30.041Z,18.80
2023-04-18T14:26:57.383Z,18.90
2023-04-18T14:29:24.861Z,19.00
2023-04-18T14:31:52.260Z,19.20
2023-04-18T14:34:19.648Z,19.30
2023-04-18T14:36:46.972Z,19.00
2023-04-18T14:39:14.610Z,18.80
2023-04-18T14:41:42.051Z,18.50
2023-04-18T14:44:09.352Z,18.40
2023-04-18T14:46:37.165Z,18.30
2023-04-18T14:49:04.570Z,18.20
2023-04-18T14:51:32.329Z,18.40
2023-04-18T14:53:59.940Z,18.50
2023-04-18T14:56:27.339Z,18.70
2023-04-18T14:58:54.800Z,18.90
2023-04-18T15:01:22.274Z,19.00
2023-04-18T15:03:51.593Z,19.10
2023-04-18T15:06:19.029Z,19.10
2023-04-18T15:08:46.535Z,19.20
2023-04-18T15:11:13.833Z,19.20
2023-04-18T15:13:41.456Z,19.30
2023-04-18T15:16:08.982Z,19.30
2023-04-18T15:18:36.514Z,19.40
2023-04-18T15:21:03.893Z,19.40
2023-04-18T15:23:32.130Z,19.40
2023-04-18T15:25:59.835Z,19.40
2023-04-18T15:28:27.281Z,19.40
2023-04-18T15:30:54.803Z,19.50
2023-04-18T15:33:25.328Z,19.50
2023-04-18T15:35:52.740Z,19.50
2023-04-18T15:38:20.124Z,19.40
2023-04-18T15:40:47.613Z,19.40
2023-04-18T15:43:17.339Z,19.40
2023-04-18T15:45:45.083Z,19.40
2023-04-18T15:48:13.349Z,19.30
2023-04-18T15:50:42.481Z,19.20
2023-04-18T15:53:10.010Z,19.20
2023-04-18T15:55:37.520Z,19.10
2023-04-18T15:58:05.306Z,19.10
2023-04-18T16:00:32.942Z,19.00
2023-04-18T16:03:00.377Z,18.90
2023-04-18T16:05:27.838Z,18.70
2023-04-18T16:07:56.487Z,18.60
2023-04-18T16:10:24.469Z,18.60
2023-04-18T16:12:51.768Z,18.70
2023-04-18T16:15:19.587Z,18.60
2023-04-18T16:17:46.893Z,18.60
2023-04-18T16:20:14.298Z,18.70
2023-04-18T16:22:41.736Z,18.70
2023-04-18T16:25:09.600Z,18.80
2023-04-18T16:27:37.008Z,18.80
2023-04-18T16:30:05.400Z,18.70
2023-04-18T16:32:32.783Z,18.70
2023-04-18T16:35:00.424Z,18.60
2023-04-18T16:37:27.849Z,18.70
2023-04-18T16:39:55.173Z,18.70
2023-04-18T16:42:22.443Z,18.60
2023-04-18T16:44:49.922Z,18.60
2023-04-18T16:47:17.244Z,18.50
2023-04-18T16:49:46.763Z,18.40
2023-04-18T16:52:14.664Z,18.20
2023-04-18T16:54:42.086Z,18.10
2023-04-18T16:57:09.545Z,18.10
2023-04-18T16:59:37.019Z,18.10
2023-04-18T17:02:04.620Z,18.00
2023-04-18T17:04:32.200Z,17.90
2023-04-18T17:07:01.086Z,17.90
2023-04-18T17:09:28.503Z,17.90
2023-04-18T17:11:55.812Z,17.90
2023-04-18T17:14:23.273Z,17.80
2023-04-18T17:16:52.916Z,17.80
2023-04-18T17:19:21.430Z,17.90
2023-04-18T17:21:51.017Z,17.90
2023-04-18T17:24:19.190Z,17.90
2023-04-18T17:26:46.451Z,17.90
2023-04-18T17:29:14.046Z,17.90
2023-04-18T17:31:41.846Z,17.90
2023-04-18T17:34:09.215Z,17.80
2023-04-18T17:36:36.628Z,17.70
2023-04-18T17:39:05.782Z,17.70
2023-04-18T17:41:36.380Z,17.60
2023-04-18T17:44:04.217Z,17.50
2023-04-18T17:46:32.349Z,17.40
2023-04-18T17:49:00.656Z,17.30
2023-04-18T17:51:28.039Z,17.30
2023-04-18T17:53:55.360Z,17.30
2023-04-18T17:56:23.071Z,17.20
2023-04-18T17:58:50.870Z,17.10
2023-04-18T18:01:20.062Z,17.00
2023-04-18T18:03:48.398Z,17.00
2023-04-18T18:06:16.342Z,16.90
2023-04-18T18:08:44.312Z,16.80
2023-04-18T18:11:11.732Z,16.70
2023-04-18T18:13:39.407Z,16.70
2023-04-18T18:16:07.708Z,16.60
2023-04-18T18:18:35.385Z,16.50
2023-04-18T18:21:02.786Z,16.40
2023-04-18T18:23:30.342Z,16.40
2023-04-18T18:25:57.662Z,16.30
2023-04-18T18:28:25.157Z,16.30
2023-04-18T18:30:52.462Z,16.20
2023-04-18T18:33:19.964Z,16.10
2023-04-18T18:35:47.312Z,16.00
2023-04-18T18:38:14.672Z,16.00
2023-04-18T18:40:41.960Z,15.90
2023-04-18T18:43:09.442Z,15.90
2023-04-18T18:45:37.670Z,15.80
2023-04-18T18:48:07.293Z,15.70
2023-04-18T18:50:34.813Z,15.70
2023-04-18T18:53:02.340Z,15.60
2023-04-18T18:55:30.545Z,15.50
2023-04-18T18:57:57.999Z,15.40
2023-04-18T19:00:25.528Z,15.40
2023-04-18T19:02:53.023Z,15.30
2023-04-18T19:05:21.542Z,15.20
2023-04-18T19:07:49.249Z,15.20
2023-04-18T19:10:16.560Z,15.10
2023-04-18T19:12:44.072Z,15.00
2023-04-18T19:15:11.953Z,15.00
2023-04-18T19:17:39.457Z,14.90
2023-04-18T19:20:07.813Z,14.90
2023-04-18T19:22:35.265Z,14.80
2023-04-18T19:25:03.068Z,14.80
2023-04-18T19:27:30.509Z,14.70
2023-04-18T19:29:57.783Z,14.70
2023-04-18T19:32:25.575Z,14.60
2023-04-18T19:34:53.006Z,14.60
2023-04-18T19:37:20.306Z,14.60
2023-04-18T19:39:47.551Z,14.60
2023-04-18T19:42:15.009Z,14.50
2023-04-18T19:44:42.363Z,14.50
2023-04-18T19:47:09.856Z,14.40
2023-04-18T19:49:37.251Z,14.40
2023-04-18T19:52:04.761Z,14.30
2023-04-18T19:54:33.599Z,14.30
2023-04-18T19:57:01.598Z,14.20
2023-04-18T19:59:28.799Z,14.20
2023-04-18T20:01:57.966Z,14.20
2023-04-18T20:04:27.840Z,14.20
2023-04-18T20:06:56.501Z,14.10
2023-04-18T20:09:23.869Z,14.10
2023-04-18T20:11:51.329Z,14.10
2023-04-18T20:14:18.732Z,14.10
2023-04-18T20:16:49.233Z,14.10
2023-04-18T20:19:18.010Z,14.00
2023-04-18T20:21:45.499Z,14.00
2023-04-18T20:24:13.881Z,13.90
2023-04-18T20:26:41.299Z,13.80
2023-04-18T20:29:08.836Z,13.80
2023-04-18T20:31:37.846Z,13.80
2023-04-18T20:34:05.433Z,13.70
2023-04-18T20:36:34.666Z,13.80
2023-04-18T20:39:02.521Z,13.70
2023-04-18T20:41:31.207Z,13.70
2023-04-18T20:43:58.734Z,13.70
2023-04-18T20:46:26.068Z,13.60
2023-04-18T20:48:53.509Z,13.60
2023-04-18T20:51:20.840Z,13.60
2023-04-18T20:53:48.170Z,13.60
2023-04-18T20:56:15.530Z,13.60
2023-04-18T20:58:43.182Z,13.60
2023-04-18T21:01:10.547Z,13.60
2023-04-18T21:03:38.102Z,13.50
2023-04-18T21:06:05.734Z,13.40
2023-04-18T21:08:35.123Z,13.40
2023-04-18T21:11:02.483Z,13.40
2023-04-18T21:13:31.947Z,13.40
2023-04-18T21:15:59.255Z,13.40
2023-04-18T21:18:26.690Z,13.30
2023-04-18T21:20:54.078Z,13.30
2023-04-18T21:23:24.630Z,13.20
2023-04-18T21:25:52.048Z,13.20
2023-04-18T21:28:20.500Z,13.20
2023-04-18T21:30:47.781Z,13.20
2023-04-18T21:33:15.817Z,13.10
2023-04-18T21:35:43.105Z,13.10
2023-04-18T21:38:10.453Z,13.00
2023-04-18T21:40:38.339Z,12.90
2023-04-18T21:43:05.689Z,12.80
2023-04-18T21:45:33.789Z,12.80
2023-04-18T21:48:01.278Z,12.70
2023-04-18T21:50:28.659Z,12.70
2023-04-18T21:52:56.140Z,12.60
2023-04-18T21:55:23.550Z,12.60
2023-04-18T21:57:50.942Z,12.60
2023-04-18T22:00:19.123Z,12.50
2023-04-18T22:02:47.325Z,12.50
2023-04-18T22:05:16.209Z,12.50
2023-04-18T22:07:56.815Z,12.40
2023-04-18T22:10:25.882Z,12.40
2023-04-18T22:12:54.187Z,12.40
2023-04-18T22:15:21.911Z,12.40
2023-04-18T22:17:50.632Z,12.40
2023-04-18T22:20:18.117Z,12.40
2023-04-18T22:22:45.575Z,12.40
2023-04-18T22:25:13.052Z,12.30
2023-04-18T22:27:40.871Z,12.30
2023-04-18T22:30:08.817Z,12.30
2023-04-18T22:32:36.180Z,12.30
2023-04-18T22:35:04.200Z,12.30
2023-04-18T22:37:31.584Z,12.30
2023-04-18T22:39:59.098Z,12.20
2023-04-18T22:42:26.326Z,12.30
2023-04-18T22:44:53.640Z,12.20
2023-04-18T22:47:21.471Z,12.20
2023-04-18T22:49:49.468Z,12.20
2023-04-18T22:52:16.752Z,12.20
2023-04-18T22:54:44.208Z,12.20
2023-04-18T22:57:11.718Z,12.10
2023-04-18T22:59:39.258Z,12.10
2023-04-18T23:02:06.968Z,12.10
2023-04-18T23:04:34.656Z,12.10
2023-04-18T23:07:02.133Z,12.00
2023-04-18T23:09:31.526Z,12.00
2023-04-18T23:11:58.836Z,12.00
2023-04-18T23:14:26.221Z,12.00
2023-04-18T23:16:53.554Z,11.90
2023-04-18T23:19:20.952Z,12.00
2023-04-18T23:21:49.642Z,12.00
2023-04-18T23:24:17.464Z,12.00
2023-04-18T23:26:44.911Z,11.90
2023-04-18T23:29:12.273Z,11.90
2023-04-18T23:31:39.591Z,11.90
2023-04-18T23:34:06.954Z,11.90
2023-04-18T23:36:34.271Z,11.80
2023-04-18T23:39:02.238Z,11.80
2023-04-18T23:41:29.516Z,11.80
2023-04-18T23:43:56.912Z,11.80
2023-04-18T23:46:24.350Z,11.80
2023-04-18T23:48:52.442Z,11.70
2023-04-18T23:51:19.788Z,11.70
2023-04-18T23:53:47.195Z,11.70
2023-04-18T23:56:14.492Z,11.60
2023-04-18T23:58:41.884Z,11.60
